• Join FlightAware (Why Join?)
  • Login
  • US Flag 
01:53AM EDT


 

Airport Tracker/Info


-or-


 

Live Flight TrackerFlight Track Log ✈ N5352K ✈ 04-Sep-2013 ✈ KOPF - KOPF

Flight Track Log - Related Links

Times and Time Zones

All times are in EDT time to prevent confusion due to time zone crossing. See the N5352K flight status page for this flight to view local times or setup timezone preferences in your user account.

Time Position Orientation Groundspeed Altitude Reporting Facility
EDT Latitude Longitude Course Direction KTS MPH feet Rate Location/Type
01:11PM 25.9110 -80.2880 North  Level FlightAware
01:17PM 25.9030 -80.2760 122° Southeast 62 71 200 60 Climbing FlightAware
01:17PM 25.8990 -80.2650 112° Southeast 71 82 600 720 Climbing FlightAware
01:17PM 25.8990 -80.2580 90° East 72 83 800 720 Climbing FlightAware
01:18PM 25.9000 -80.2510 81° East 70 81 1,100 660 Climbing FlightAware
01:18PM 25.9030 -80.2370 77° East 77 89 1,500 600 Climbing FlightAware
01:19PM 25.9040 -80.2340 70° East 72 83 1,600 600 Climbing FlightAware
01:19PM 25.9060 -80.2280 70° East 67 77 1,800 420 Climbing FlightAware
01:19PM 25.9060 -80.2210 90° East 86 99 1,900 120 Climbing FlightAware
01:19PM 25.9070 -80.2140 81° East 79 91 1,900  Level FlightAware
01:20PM 25.9070 -80.2120 90° East 80 92 1,900 480 Level FlightAware
01:20PM 25.9090 -80.2090 53° Northeast 82 94 2,000 360 Climbing FlightAware
01:20PM 25.9120 -80.2080 17° North 89 102 2,000  Level FlightAware
01:20PM 25.9140 -80.2070 24° Northeast 95 109 2,000  Level FlightAware
01:20PM 25.9220 -80.2120 331° Northwest 96 110 2,000  Level FlightAware
01:21PM 25.9280 -80.2220 304° West 100 115 2,000 120 Level FlightAware
01:21PM 25.9310 -80.2290 295° West 96 110 2,100 120 Climbing FlightAware
01:21PM 25.9350 -80.2390 294° West 104 120 2,100  Level FlightAware
01:22PM 25.9400 -80.2460 308° West 110 127 2,100  Level FlightAware
01:22PM 25.9450 -80.2540 305° West 103 119 2,100  Level FlightAware
01:22PM 25.9470 -80.2560 318° Northwest 109 125 2,100  Level FlightAware
01:22PM 25.9530 -80.2620 318° Northwest 107 123 2,100  Level FlightAware
01:22PM 25.9590 -80.2710 307° West 109 125 2,100 -180 Level FlightAware
01:23PM 25.9620 -80.2780 295° West 112 129 2,000 -240 Descending FlightAware
01:23PM 25.9670 -80.2850 308° West 108 124 2,000  Level FlightAware
01:23PM 25.9730 -80.2940 307° West 107 123 2,000  Level FlightAware
01:24PM 25.9790 -80.3030 307° West 106 122 2,000  Level FlightAware
01:24PM 25.9880 -80.3130 315° West 105 121 2,000  Level FlightAware
01:24PM 25.9930 -80.3200 308° West 108 124 2,000  Level FlightAware
01:25PM 25.9990 -80.3240 329° Northwest 108 124 2,000  Level FlightAware
01:25PM 26.0020 -80.3260 329° Northwest 99 114 2,000  Level FlightAware
01:25PM 26.0050 -80.3300 310° West 103 119 2,000  Level FlightAware
01:25PM 26.0100 -80.3390 302° West 106 122 2,000  Level FlightAware
01:25PM 26.0140 -80.3460 302° West 104 120 2,000  Level FlightAware
01:26PM 26.0190 -80.3530 308° West 105 121 2,000  Level FlightAware
01:26PM 26.0200 -80.3550 299° West 103 119 2,000  Level FlightAware
01:26PM 26.0200 -80.3610 270° West 106 122 2,000  Level FlightAware
01:26PM 26.0180 -80.3710 257° West 108 124 2,000  Level FlightAware
01:27PM 26.0170 -80.3810 264° West 109 125 2,000  Level FlightAware
01:27PM 26.0150 -80.3930 259° West 107 123 2,000 -180 Level FlightAware
01:27PM 26.0120 -80.4040 253° West 106 122 1,900 -180 Descending FlightAware
01:28PM 26.0110 -80.4140 264° West 104 120 1,900  Level FlightAware
01:28PM 26.0070 -80.4240 246° West 94 108 1,900  Level FlightAware
01:28PM 26.0060 -80.4260 241° Southwest 95 109 1,900 -420 Level FlightAware
01:28PM 26.0020 -80.4280 204° Southwest 90 104 1,800  Descending FlightAware
01:28PM 25.9990 -80.4290 197° South 80 92 1,900 300 Climbing FlightAware
01:28PM 25.9950 -80.4290 180° South 67 77 1,900  Level FlightAware
01:29PM 25.9880 -80.4260 159° South 77 89 1,900  Level FlightAware
01:29PM 25.9800 -80.4200 146° Southeast 70 81 1,900  Level FlightAware
01:29PM 25.9760 -80.4170 146° Southeast 69 79 1,900  Level FlightAware
01:30PM 25.9760 -80.4150 90° East 72 83 1,900  Level FlightAware
01:30PM 25.9750 -80.4130 119° Southeast 76 87 1,900  Level FlightAware
01:30PM 25.9770 -80.4050 74° East 81 93 1,900  Level FlightAware
01:30PM 25.9780 -80.4030 61° Northeast 81 93 1,900 -240 Level FlightAware
01:30PM 25.9740 -80.3960 122° Southeast 78 90 1,800  Descending FlightAware
01:31PM 25.9680 -80.3910 143° Southeast 71 82 1,900 120 Climbing FlightAware
01:31PM 25.9660 -80.3860 114° Southeast 72 83 1,900  Level FlightAware
01:31PM 25.9620 -80.3800 127° Southeast 69 79 1,900 -300 Level FlightAware
01:32PM 25.9570 -80.3710 122° Southeast 73 84 1,700 -480 Descending FlightAware
01:32PM 25.9540 -80.3660 124° Southeast 77 89 1,600 -480 Descending FlightAware
01:32PM 25.9500 -80.3580 119° Southeast 68 78 1,400 -720 Descending FlightAware
01:33PM 25.9470 -80.3520 119° Southeast 73 84 1,100 -900 Descending FlightAware
01:33PM 25.9450 -80.3470 114° Southeast 72 83 900 -900 Descending FlightAware
01:33PM 25.9410 -80.3400 122° Southeast 77 89 600 -600 Descending FlightAware
01:34PM 25.9360 -80.3350 138° Southeast 58 67 500 -180 Descending FlightAware
01:34PM 25.9330 -80.3310 130° Southeast 60 69 500  Level FlightAware
01:34PM 25.9320 -80.3270 106° East 66 76 500  Level FlightAware
01:34PM 25.9300 -80.3230 119° Southeast 60 69 500  Level FlightAware
01:35PM 25.9270 -80.3180 124° Southeast 64 74 500  Level FlightAware
01:35PM 25.9250 -80.3140 119° Southeast 73 84 500  Level FlightAware
01:35PM 25.9230 -80.3110 127° Southeast 78 90 500  Level FlightAware
01:35PM 25.9210 -80.3080 127° Southeast 72 83 500  Level FlightAware
01:36PM 25.9170 -80.3010 122° Southeast 70 81 500  Level FlightAware
01:36PM 25.9170 -80.2990 90° East 72 83 500  Level FlightAware
01:36PM 25.9140 -80.2960 138° Southeast 78 90 500 180 Level FlightAware
01:36PM 25.9110 -80.2890 115° Southeast 66 76 600  Climbing FlightAware
01:36PM 25.9100 -80.2870 119° Southeast 72 83 500  Descending FlightAware
01:37PM 25.9070 -80.2800 115° Southeast 72 83 600 300 Climbing FlightAware
01:37PM 25.9040 -80.2730 115° Southeast 85 98 700 600 Climbing FlightAware
01:37PM 25.9050 -80.2650 82° East 78 90 1,000 900 Climbing FlightAware
01:38PM 25.9060 -80.2570 82° East 66 76 1,300 780 Climbing FlightAware
01:38PM 25.9070 -80.2520 77° East 69 79 1,500 600 Climbing FlightAware
01:38PM 25.9080 -80.2470 77° East 72 83 1,600 420 Climbing FlightAware
01:38PM 25.9110 -80.2380 70° East 78 90 1,800 600 Climbing FlightAware
01:39PM 25.9110 -80.2360 90° East 74 85 1,900 1,200 Climbing FlightAware
01:39PM 25.9130 -80.2350 24° Northeast 73 84 2,000 600 Climbing FlightAware
01:39PM 25.9140 -80.2340 42° Northeast 85 98 2,000  Level FlightAware
01:39PM 25.9170 -80.2340 360° North 84 97 2,000  Level FlightAware
01:39PM 25.9280 -80.2390 338° Northwest 104 120 2,000  Level FlightAware
01:40PM 25.9360 -80.2450 326° Northwest 110 127 2,000 -180 Level FlightAware
01:40PM 25.9480 -80.2520 332° Northwest 118 136 1,900 -180 Descending FlightAware
01:40PM 25.9560 -80.2580 326° Northwest 108 124 1,900 -240 Level FlightAware
01:40PM 25.9600 -80.2610 326° Northwest 114 131 1,800 -360 Descending FlightAware
01:41PM 25.9640 -80.2640 326° Northwest 104 120 1,800  Level FlightAware
01:41PM 25.9720 -80.2710 322° Northwest 104 120 1,800 120 Level FlightAware
01:41PM 25.9800 -80.2800 315° West 100 115 1,900 120 Climbing FlightAware
01:42PM 25.9880 -80.2860 326° Northwest 103 119 1,900 120 Level FlightAware
01:42PM 25.9940 -80.2940 310° West 99 114 2,000 120 Climbing FlightAware
01:42PM 25.9980 -80.3000 307° West 105 121 2,000  Level FlightAware
01:42PM 25.9990 -80.3060 281° West 107 123 2,000  Level FlightAware
01:43PM 26.0000 -80.3140 278° West 107 123 2,000  Level FlightAware
01:43PM 26.0010 -80.3200 281° West 108 124 2,000  Level FlightAware
01:43PM 26.0020 -80.3220 299° West 113 130 2,000  Level FlightAware
01:43PM 26.0050 -80.3300 293° West 108 124 2,000 240 Level FlightAware
01:43PM 26.0060 -80.3350 283° West 111 128 2,100 300 Climbing FlightAware
01:44PM 26.0080 -80.3400 294° West 105 121 2,100  Level FlightAware
01:44PM 26.0100 -80.3550 278° West 114 131 2,100  Level FlightAware
01:44PM 26.0110 -80.3580 290° West 114 131 2,100  Level FlightAware
01:44PM 26.0120 -80.3610 290° West 110 127 2,100 -240 Level FlightAware
01:45PM 26.0140 -80.3740 280° West 112 129 2,000 -180 Descending FlightAware
01:45PM 26.0150 -80.3800 281° West 107 123 2,000 -240 Level FlightAware
01:45PM 26.0170 -80.3910 281° West 107 123 1,900 -120 Descending FlightAware
01:46PM 26.0080 -80.4050 234° Southwest 89 102 1,900  Level FlightAware
01:46PM 26.0010 -80.4150 232° Southwest 91 105 1,900  Level FlightAware
01:46PM 25.9980 -80.4170 211° Southwest 89 102 1,900  Level FlightAware
01:46PM 25.9940 -80.4180 193° South 69 79 1,900  Level FlightAware
01:47PM 25.9870 -80.4150 159° South 78 90 1,900  Level FlightAware
01:47PM 25.9780 -80.4090 149° Southeast 75 86 1,900 -300 Level FlightAware
01:48PM 25.9710 -80.4050 153° Southeast 70 81 1,700 -360 Descending FlightAware
01:48PM 25.9670 -80.4030 156° South 62 71 1,700  Level FlightAware
01:48PM 25.9650 -80.4010 138° Southeast 68 78 1,700  Level FlightAware
01:48PM 25.9640 -80.3990 119° Southeast 66 76 1,700 -600 Level FlightAware
01:48PM 25.9640 -80.3970 90° East 69 79 1,600 -300 Descending FlightAware
01:48PM 25.9640 -80.3920 90° East 70 81 1,600  Level FlightAware
01:49PM 25.9630 -80.3840 98° East 74 85 1,600  Level FlightAware
01:49PM 25.9610 -80.3810 127° Southeast 66 76 1,600  Level FlightAware
01:49PM 25.9590 -80.3790 138° Southeast 71 82 1,600  Level FlightAware
01:49PM 25.9570 -80.3760 127° Southeast 66 76 1,600  Level FlightAware
01:50PM 25.9530 -80.3700 127° Southeast 68 78 1,600 120 Level FlightAware
01:50PM 25.9490 -80.3650 132° Southeast 52 60 1,700 -240 Climbing FlightAware
01:50PM 25.9490 -80.3620 90° East 63 72 1,500 -720 Descending FlightAware
01:50PM 25.9480 -80.3570 103° East 67 77 1,400 -480 Descending FlightAware
01:50PM 25.9480 -80.3530 90° East 70 81 1,300 -600 Descending FlightAware
01:51PM 25.9460 -80.3490 119° Southeast 72 83 1,200 -600 Descending FlightAware
01:51PM 25.9420 -80.3430 127° Southeast 70 81 1,000 -480 Descending FlightAware
01:51PM 25.9380 -80.3380 132° Southeast 64 74 900 -300 Descending FlightAware
01:52PM 25.9350 -80.3320 119° Southeast 61 70 800 -420 Descending FlightAware
01:52PM 25.9300 -80.3260 133° Southeast 64 74 600 -480 Descending FlightAware
01:52PM 25.9280 -80.3210 114° Southeast 69 79 500 -300 Descending FlightAware
01:52PM 25.9270 -80.3190 119° Southeast 63 72 500 -420 Level FlightAware
01:53PM 25.9240 -80.3110 113° Southeast 61 70 300 -420 Descending FlightAware
01:53PM 25.9220 -80.3060 114° Southeast 66 76 200 -180 Descending FlightAware
01:53PM 25.9170 -80.3000 133° Southeast 60 69 200  Level FlightAware